createdAt,value
2022-11-17T00:01:10.269Z,6.00
2022-11-17T00:03:37.415Z,6.00
2022-11-17T00:06:10.264Z,6.00
2022-11-17T00:08:39.392Z,5.90
2022-11-17T00:11:08.312Z,5.90
2022-11-17T00:13:56.355Z,5.90
2022-11-17T00:16:23.100Z,5.80
2022-11-17T00:19:09.165Z,5.80
2022-11-17T00:21:38.347Z,5.80
2022-11-17T00:24:05.421Z,5.80
2022-11-17T00:26:35.318Z,5.70
2022-11-17T00:29:06.408Z,5.70
2022-11-17T00:31:53.016Z,5.70
2022-11-17T00:34:21.803Z,5.70
2022-11-17T00:36:53.572Z,5.70
2022-11-17T00:39:22.270Z,5.70
2022-11-17T00:41:51.316Z,5.70
2022-11-17T00:44:18.207Z,5.60
2022-11-17T00:46:48.463Z,5.60
2022-11-17T00:49:20.041Z,5.60
2022-11-17T00:51:47.205Z,5.50
2022-11-17T00:54:15.410Z,5.60
2022-11-17T00:56:42.333Z,5.60
2022-11-17T00:59:12.097Z,5.70
2022-11-17T01:01:39.776Z,5.70
2022-11-17T01:04:09.626Z,5.60
2022-11-17T01:06:39.367Z,5.60
2022-11-17T01:09:16.225Z,5.60
2022-11-17T01:11:46.460Z,5.50
2022-11-17T01:14:16.961Z,5.60
2022-11-17T01:16:48.870Z,5.50
2022-11-17T01:19:19.665Z,5.50
2022-11-17T01:21:46.954Z,5.40
2022-11-17T01:24:17.342Z,5.50
2022-11-17T01:26:45.807Z,5.40
2022-11-17T01:29:16.964Z,5.30
2022-11-17T01:31:44.609Z,5.30
2022-11-17T01:34:17.079Z,5.30
2022-11-17T01:37:05.506Z,5.30
2022-11-17T01:39:34.627Z,5.40
2022-11-17T01:45:49.197Z,5.30
2022-11-17T01:48:16.153Z,5.30
2022-11-17T01:50:49.292Z,5.30
2022-11-17T01:53:19.519Z,5.30
2022-11-17T01:55:50.006Z,5.40
2022-11-17T01:58:38.541Z,5.30
2022-11-17T02:01:05.805Z,5.30
2022-11-17T02:03:36.977Z,5.30
2022-11-17T02:06:19.013Z,5.30
2022-11-17T02:08:50.219Z,5.20
2022-11-17T02:11:20.108Z,5.30
2022-11-17T02:13:53.827Z,5.30
2022-11-17T02:16:20.929Z,5.30
2022-11-17T02:18:50.908Z,5.30
2022-11-17T02:21:44.909Z,5.30
2022-11-17T02:24:24.896Z,5.30
2022-11-17T02:27:02.799Z,5.30
2022-11-17T02:29:39.901Z,5.30
2022-11-17T02:32:31.253Z,5.40
2022-11-17T02:35:16.162Z,5.30
2022-11-17T02:38:01.519Z,5.30
2022-11-17T02:40:39.586Z,5.30
2022-11-17T02:43:36.607Z,5.20
2022-11-17T02:46:09.341Z,5.30
2022-11-17T02:48:44.449Z,5.30
2022-11-17T02:51:22.778Z,5.30
2022-11-17T02:53:54.855Z,5.30
2022-11-17T02:56:24.671Z,5.30
2022-11-17T02:58:57.692Z,5.30
2022-11-17T03:01:24.572Z,5.30
2022-11-17T03:04:17.478Z,5.30
2022-11-17T03:07:18.137Z,5.40
2022-11-17T03:10:03.722Z,5.30
2022-11-17T03:13:07.999Z,5.40
2022-11-17T03:15:49.653Z,5.30
2022-11-17T03:22:35.897Z,5.30
2022-11-17T03:25:06.816Z,5.30
2022-11-17T03:27:44.160Z,5.30
2022-11-17T03:30:14.924Z,5.30
2022-11-17T03:32:46.512Z,5.20
2022-11-17T03:35:17.453Z,5.20
2022-11-17T03:38:13.743Z,5.20
2022-11-17T03:40:46.566Z,5.20
2022-11-17T03:43:18.685Z,5.20
2022-11-17T03:45:53.335Z,5.20
2022-11-17T03:48:28.388Z,5.20
2022-11-17T03:51:07.235Z,5.20
2022-11-17T03:53:37.315Z,5.20
2022-11-17T03:56:29.172Z,5.20
2022-11-17T03:59:25.891Z,5.30
2022-11-17T04:01:57.825Z,5.30
2022-11-17T04:04:24.798Z,5.20
2022-11-17T04:06:53.157Z,5.30
2022-11-17T04:09:24.460Z,5.30
2022-11-17T04:12:10.039Z,5.30
2022-11-17T04:15:09.411Z,5.30
2022-11-17T04:17:36.269Z,5.20
2022-11-17T04:20:03.272Z,5.20
2022-11-17T04:22:30.082Z,5.20
2022-11-17T04:25:01.329Z,5.20
2022-11-17T04:27:46.758Z,5.20
2022-11-17T04:30:13.984Z,5.20
2022-11-17T04:32:40.815Z,5.30
2022-11-17T04:35:08.060Z,5.20
2022-11-17T04:37:37.182Z,5.20
2022-11-17T04:40:04.462Z,5.20
2022-11-17T04:42:31.366Z,5.20
2022-11-17T04:45:00.178Z,5.20
2022-11-17T04:47:27.081Z,5.20
2022-11-17T04:49:53.971Z,5.20
2022-11-17T04:52:24.227Z,5.20
2022-11-17T04:54:55.855Z,5.20
2022-11-17T04:57:24.618Z,5.20
2022-11-17T04:59:51.519Z,5.30
2022-11-17T05:02:18.405Z,5.30
2022-11-17T05:04:57.442Z,5.40
2022-11-17T05:07:27.985Z,5.40
2022-11-17T05:09:54.957Z,5.40
2022-11-17T05:12:40.319Z,5.40
2022-11-17T05:15:07.744Z,5.40
2022-11-17T05:17:34.545Z,5.40
2022-11-17T05:20:01.464Z,5.40
2022-11-17T05:22:46.897Z,5.40
2022-11-17T05:25:13.753Z,5.40
2022-11-17T05:27:43.097Z,5.40
2022-11-17T05:30:10.856Z,5.40
2022-11-17T05:32:37.759Z,5.40
2022-11-17T05:35:05.058Z,5.50
2022-11-17T05:37:31.856Z,5.40
2022-11-17T05:39:58.709Z,5.50
2022-11-17T05:42:27.600Z,5.50
2022-11-17T05:44:54.508Z,5.50
2022-11-17T05:47:23.622Z,5.50
2022-11-17T05:49:50.445Z,5.50
2022-11-17T05:52:17.283Z,5.40
2022-11-17T05:54:48.539Z,5.40
2022-11-17T05:57:21.222Z,5.40
2022-11-17T05:59:59.881Z,5.40
2022-11-17T06:02:41.962Z,5.40
2022-11-17T06:05:09.690Z,5.50
2022-11-17T06:07:37.241Z,5.40
2022-11-17T06:10:06.260Z,5.40
2022-11-17T06:12:33.057Z,5.40
2022-11-17T06:15:02.131Z,5.50
2022-11-17T06:17:36.097Z,5.50
2022-11-17T06:20:12.692Z,5.50
2022-11-17T06:22:47.992Z,5.50
2022-11-17T06:25:17.050Z,5.50
2022-11-17T06:27:48.618Z,5.50
2022-11-17T06:30:15.623Z,5.50
2022-11-17T06:32:43.920Z,5.50
2022-11-17T06:35:14.133Z,5.50
2022-11-17T06:37:41.069Z,5.50
2022-11-17T06:40:08.858Z,5.60
2022-11-17T06:42:57.133Z,5.50
2022-11-17T06:45:24.292Z,5.50
2022-11-17T06:47:53.671Z,5.50
2022-11-17T06:50:20.971Z,5.50
2022-11-17T06:52:47.829Z,5.50
2022-11-17T06:55:17.292Z,5.50
2022-11-17T06:57:53.142Z,5.50
2022-11-17T07:00:20.877Z,5.50
2022-11-17T07:02:50.193Z,5.50
2022-11-17T07:05:17.248Z,5.50
2022-11-17T07:07:44.144Z,5.50
2022-11-17T07:10:15.478Z,5.50
2022-11-17T07:12:42.322Z,5.50
2022-11-17T07:15:09.564Z,5.50
2022-11-17T07:17:36.387Z,5.50
2022-11-17T07:20:04.067Z,5.60
2022-11-17T07:22:30.951Z,5.60
2022-11-17T07:24:57.774Z,5.70
2022-11-17T07:27:27.645Z,5.70
2022-11-17T07:29:54.461Z,5.60
2022-11-17T07:32:22.020Z,5.60
2022-11-17T07:34:53.501Z,5.60
2022-11-17T07:37:20.407Z,5.70
2022-11-17T07:39:47.253Z,5.70
2022-11-17T07:42:16.387Z,5.70
2022-11-17T07:44:44.719Z,5.70
2022-11-17T07:47:11.530Z,5.70
2022-11-17T07:49:38.337Z,5.70
2022-11-17T07:52:05.113Z,5.80
2022-11-17T07:54:31.994Z,5.80
2022-11-17T07:57:01.083Z,5.70
2022-11-17T07:59:30.319Z,5.80
2022-11-17T08:01:57.111Z,5.70
2022-11-17T08:04:26.209Z,5.80
2022-11-17T08:06:53.039Z,5.80
2022-11-17T08:09:21.773Z,5.80
2022-11-17T08:11:48.673Z,5.80
2022-11-17T08:14:17.902Z,5.80
2022-11-17T08:16:47.282Z,5.80
2022-11-17T08:19:18.720Z,5.80
2022-11-17T08:21:47.929Z,5.80
2022-11-17T08:24:16.991Z,5.90
2022-11-17T08:26:43.783Z,5.90
2022-11-17T08:29:10.677Z,5.90
2022-11-17T08:31:37.655Z,5.90
2022-11-17T08:34:04.490Z,5.90
2022-11-17T08:36:33.515Z,5.90
2022-11-17T08:39:05.758Z,5.90
2022-11-17T08:41:32.718Z,5.90
2022-11-17T08:44:02.127Z,5.90
2022-11-17T08:46:29.046Z,5.90
2022-11-17T08:48:57.263Z,5.90
2022-11-17T08:51:28.883Z,5.90
2022-11-17T08:53:59.176Z,6.00
2022-11-17T08:56:25.994Z,6.00
2022-11-17T08:58:52.950Z,6.00
2022-11-17T09:01:19.862Z,6.00
2022-11-17T09:03:47.833Z,6.10
2022-11-17T09:06:17.963Z,6.00
2022-11-17T09:08:46.957Z,6.10
2022-11-17T09:11:14.997Z,6.00
2022-11-17T09:13:47.195Z,6.00
2022-11-17T09:16:15.526Z,6.00
2022-11-17T09:18:44.871Z,6.10
2022-11-17T09:21:15.220Z,6.10
2022-11-17T09:23:44.870Z,6.20
2022-11-17T09:26:14.418Z,6.10
2022-11-17T09:28:42.043Z,6.10
2022-11-17T09:31:13.048Z,6.10
2022-11-17T09:33:40.307Z,6.10
2022-11-17T09:36:08.985Z,6.10
2022-11-17T09:38:39.584Z,6.10
2022-11-17T09:41:46.800Z,6.10
2022-11-17T09:44:31.723Z,6.10
2022-11-17T09:47:22.263Z,6.10
2022-11-17T09:50:10.326Z,6.10
2022-11-17T09:52:54.101Z,6.10
2022-11-17T09:55:34.404Z,6.10
2022-11-17T09:58:21.499Z,6.10
2022-11-17T10:00:54.349Z,6.10
2022-11-17T10:03:28.279Z,6.10
2022-11-17T10:05:56.142Z,6.10
2022-11-17T10:08:51.319Z,6.10
2022-11-17T10:11:33.176Z,6.20
2022-11-17T10:14:08.903Z,6.20
2022-11-17T10:16:47.023Z,6.10
2022-11-17T10:19:32.003Z,6.10
2022-11-17T10:22:02.608Z,6.10
2022-11-17T10:24:46.408Z,6.00
2022-11-17T10:27:24.387Z,6.00
2022-11-17T10:30:09.892Z,6.10
2022-11-17T10:32:48.352Z,6.10
2022-11-17T10:35:24.117Z,6.00
2022-11-17T10:38:01.331Z,6.10
2022-11-17T10:40:45.395Z,6.10
2022-11-17T10:43:12.196Z,6.10
2022-11-17T10:45:49.525Z,6.10
2022-11-17T10:48:25.478Z,6.10
2022-11-17T10:51:09.206Z,6.10
2022-11-17T10:53:46.341Z,6.10
2022-11-17T10:56:17.725Z,6.10
2022-11-17T10:59:15.071Z,6.20
2022-11-17T11:01:44.639Z,6.20
2022-11-17T11:04:32.940Z,6.20
2022-11-17T11:07:23.387Z,6.20
2022-11-17T11:09:57.763Z,6.30
2022-11-17T11:12:43.539Z,6.30
2022-11-17T11:15:22.314Z,6.30
2022-11-17T11:17:53.518Z,6.30
2022-11-17T11:20:29.665Z,6.30
2022-11-17T11:23:08.092Z,6.30
2022-11-17T11:26:01.268Z,6.30
2022-11-17T11:28:54.665Z,6.30
2022-11-17T11:31:52.201Z,6.30
2022-11-17T11:34:37.674Z,6.30
2022-11-17T11:37:11.951Z,6.30
2022-11-17T11:39:55.779Z,6.30
2022-11-17T11:42:56.178Z,6.30
2022-11-17T11:45:40.751Z,6.30
2022-11-17T11:48:22.841Z,6.40
2022-11-17T11:50:49.663Z,6.30
2022-11-17T11:53:24.319Z,6.30
2022-11-17T11:56:14.790Z,6.40
2022-11-17T11:58:57.447Z,6.30
2022-11-17T12:01:26.026Z,6.40
2022-11-17T12:04:27.819Z,6.40
2022-11-17T12:07:15.326Z,6.40
2022-11-17T12:10:14.522Z,6.30
2022-11-17T12:12:48.295Z,6.30
2022-11-17T12:15:20.513Z,6.30
2022-11-17T12:18:05.355Z,6.30
2022-11-17T12:20:38.260Z,6.30
2022-11-17T12:23:07.979Z,6.20
2022-11-17T12:25:37.068Z,6.20
2022-11-17T12:28:38.223Z,6.30
2022-11-17T12:31:09.786Z,6.30
2022-11-17T12:33:55.616Z,6.40
2022-11-17T12:36:36.899Z,6.40
2022-11-17T12:39:42.616Z,6.30
2022-11-17T12:42:10.404Z,6.30
2022-11-17T12:44:37.382Z,6.40
2022-11-17T12:47:15.353Z,6.40
2022-11-17T12:49:51.675Z,6.30
2022-11-17T12:52:38.518Z,6.30
2022-11-17T12:55:59.766Z,6.30
2022-11-17T12:59:04.639Z,6.30
2022-11-17T13:01:53.009Z,6.30
2022-11-17T13:04:43.817Z,6.30
2022-11-17T13:07:23.419Z,6.40
2022-11-17T13:09:58.434Z,6.30
2022-11-17T13:12:37.252Z,6.30
2022-11-17T13:15:08.019Z,6.30
2022-11-17T13:17:44.130Z,6.30
2022-11-17T13:20:26.790Z,6.30
2022-11-17T13:23:01.228Z,6.30
2022-11-17T13:25:28.117Z,6.30
2022-11-17T13:28:03.100Z,6.40
2022-11-17T13:30:35.788Z,6.40
2022-11-17T13:33:03.959Z,6.40
2022-11-17T13:35:33.671Z,6.40
2022-11-17T13:38:20.994Z,6.40
2022-11-17T13:40:53.360Z,6.40
2022-11-17T13:43:25.140Z,6.40
2022-11-17T13:45:54.922Z,6.40
2022-11-17T13:48:36.679Z,6.40
2022-11-17T13:51:21.758Z,6.40
2022-11-17T13:54:08.490Z,6.30
2022-11-17T13:56:42.015Z,6.30
2022-11-17T13:59:24.236Z,6.30
2022-11-17T14:02:17.122Z,6.30
2022-11-17T14:05:14.959Z,6.30
2022-11-17T14:07:42.945Z,6.30
2022-11-17T14:10:21.891Z,6.30
2022-11-17T14:12:53.071Z,6.30
2022-11-17T14:15:25.702Z,6.30
2022-11-17T14:18:01.564Z,6.30
2022-11-17T14:20:32.798Z,6.20
2022-11-17T14:23:03.820Z,6.20
2022-11-17T14:25:30.711Z,6.20
2022-11-17T14:27:57.685Z,6.20
2022-11-17T14:30:24.646Z,6.10
2022-11-17T14:32:56.022Z,6.20
2022-11-17T14:35:29.011Z,6.20
2022-11-17T14:37:56.082Z,6.20
2022-11-17T14:40:23.020Z,6.20
2022-11-17T14:42:49.899Z,6.20
2022-11-17T14:45:17.163Z,6.10
2022-11-17T14:47:44.161Z,6.10
2022-11-17T14:50:18.642Z,6.10
2022-11-17T14:52:46.043Z,6.10
2022-11-17T14:55:14.252Z,6.10
2022-11-17T14:57:44.008Z,6.10
2022-11-17T15:00:18.885Z,6.10
2022-11-17T15:02:47.111Z,6.10
2022-11-17T15:05:14.668Z,6.10
2022-11-17T15:07:42.416Z,6.10
2022-11-17T15:10:09.695Z,6.00
2022-11-17T15:12:36.902Z,6.00
2022-11-17T15:15:07.018Z,5.90
2022-11-17T15:17:36.029Z,5.90
2022-11-17T15:20:03.216Z,5.90
2022-11-17T15:22:30.075Z,5.90
2022-11-17T15:24:56.970Z,6.00
2022-11-17T15:27:26.259Z,5.90
2022-11-17T15:29:53.938Z,5.90
2022-11-17T15:32:20.761Z,5.90
2022-11-17T15:34:47.716Z,5.90
2022-11-17T15:37:14.594Z,5.90
2022-11-17T15:39:43.559Z,5.90
2022-11-17T15:42:10.417Z,5.80
2022-11-17T15:44:39.345Z,5.80
2022-11-17T15:47:06.437Z,5.80
2022-11-17T15:49:35.671Z,5.80
2022-11-17T15:52:02.524Z,5.80
2022-11-17T15:54:31.817Z,5.70
2022-11-17T15:57:01.314Z,5.70
2022-11-17T15:59:30.323Z,5.70
2022-11-17T16:01:57.250Z,5.70
2022-11-17T16:04:24.106Z,5.60
2022-11-17T16:06:51.072Z,5.60
2022-11-17T16:09:18.379Z,5.60
2022-11-17T16:11:47.838Z,5.60
2022-11-17T16:14:15.003Z,5.60
2022-11-17T16:16:43.579Z,5.60
2022-11-17T16:19:13.046Z,5.60
2022-11-17T16:21:39.973Z,5.50
2022-11-17T16:24:10.346Z,5.50
2022-11-17T16:26:37.263Z,5.50
2022-11-17T16:29:06.801Z,5.50
2022-11-17T16:31:40.088Z,5.40
2022-11-17T16:34:12.682Z,5.40
2022-11-17T16:36:41.312Z,5.40
2022-11-17T16:39:11.645Z,5.40
2022-11-17T16:41:43.008Z,5.40
2022-11-17T16:44:15.850Z,5.30
2022-11-17T16:46:45.090Z,5.30
2022-11-17T16:49:16.777Z,5.40
2022-11-17T16:51:51.949Z,5.30
2022-11-17T16:54:20.022Z,5.30
2022-11-17T16:56:47.369Z,5.30
2022-11-17T16:59:14.925Z,5.30
2022-11-17T17:01:42.058Z,5.30
2022-11-17T17:04:13.333Z,5.30
2022-11-17T17:06:44.064Z,5.20
2022-11-17T17:09:12.760Z,5.20
2022-11-17T17:11:42.095Z,5.20
2022-11-17T17:14:17.403Z,5.20
2022-11-17T17:16:47.433Z,5.20
2022-11-17T17:19:17.299Z,5.20
2022-11-17T17:21:45.399Z,5.20
2022-11-17T17:24:14.697Z,5.20
2022-11-17T17:26:41.765Z,5.30
2022-11-17T17:29:09.789Z,5.20
2022-11-17T17:31:39.093Z,5.20
2022-11-17T17:34:07.132Z,5.20
2022-11-17T17:36:38.388Z,5.10
2022-11-17T17:39:06.138Z,5.20
2022-11-17T17:41:40.785Z,5.10
2022-11-17T17:44:08.875Z,5.10
2022-11-17T17:46:37.727Z,5.10
2022-11-17T17:49:04.868Z,5.20
2022-11-17T17:51:31.844Z,5.10
2022-11-17T17:54:00.995Z,5.10
2022-11-17T17:56:30.369Z,5.20
2022-11-17T17:58:57.989Z,5.20
2022-11-17T18:01:32.964Z,5.20
2022-11-17T18:04:04.673Z,5.10
2022-11-17T18:06:36.537Z,5.10
2022-11-17T18:09:04.033Z,5.00
2022-11-17T18:11:30.909Z,5.00
2022-11-17T18:13:57.829Z,5.00
2022-11-17T18:16:28.327Z,5.00
2022-11-17T18:19:00.459Z,5.00
2022-11-17T18:21:28.653Z,5.00
2022-11-17T18:23:57.096Z,5.00
2022-11-17T18:26:29.082Z,5.00
2022-11-17T18:28:57.566Z,5.00
2022-11-17T18:31:27.267Z,5.00
2022-11-17T18:33:59.379Z,4.90
2022-11-17T18:36:29.527Z,4.90
2022-11-17T18:38:58.490Z,4.90
2022-11-17T18:41:26.602Z,4.90
2022-11-17T18:43:54.985Z,4.90
2022-11-17T18:46:23.349Z,4.90
2022-11-17T18:48:51.841Z,4.80
2022-11-17T18:51:24.167Z,4.80
2022-11-17T18:53:53.100Z,4.80
2022-11-17T18:56:22.616Z,4.80
2022-11-17T18:58:49.658Z,4.80
2022-11-17T19:01:22.654Z,4.80
2022-11-17T19:03:54.235Z,4.70
2022-11-17T19:06:23.296Z,4.70
2022-11-17T19:08:50.953Z,4.70
2022-11-17T19:11:22.242Z,4.70
2022-11-17T19:13:53.815Z,4.70
2022-11-17T19:16:24.046Z,4.70
2022-11-17T19:18:53.277Z,4.60
2022-11-17T19:21:25.891Z,4.60
2022-11-17T19:23:54.519Z,4.60
2022-11-17T19:26:28.723Z,4.60
2022-11-17T19:28:57.247Z,4.60
2022-11-17T19:31:24.901Z,4.70
2022-11-17T19:33:52.108Z,4.70
2022-11-17T19:36:29.260Z,4.70
2022-11-17T19:38:57.691Z,4.70
2022-11-17T19:41:27.188Z,4.70
2022-11-17T19:43:55.884Z,4.70
2022-11-17T19:46:24.488Z,4.70
2022-11-17T19:48:54.132Z,4.70
2022-11-17T19:51:25.504Z,4.70
2022-11-17T19:53:57.061Z,4.60
2022-11-17T19:56:25.254Z,4.60
2022-11-17T19:58:53.735Z,4.60
2022-11-17T20:01:25.999Z,4.60
2022-11-17T20:03:56.391Z,4.60
2022-11-17T20:06:27.371Z,4.60
2022-11-17T20:08:55.943Z,4.60
2022-11-17T20:11:25.439Z,4.60
2022-11-17T20:13:53.299Z,4.60
2022-11-17T20:16:24.569Z,4.60
2022-11-17T20:18:56.512Z,4.50
2022-11-17T20:21:24.474Z,4.60
2022-11-17T20:23:57.485Z,4.50
2022-11-17T20:26:27.303Z,4.50
2022-11-17T20:28:57.838Z,4.50
2022-11-17T20:31:27.288Z,4.50
2022-11-17T20:34:00.515Z,4.50
2022-11-17T20:36:29.398Z,4.50
2022-11-17T20:39:01.422Z,4.60
2022-11-17T20:41:28.736Z,4.50
2022-11-17T20:43:57.166Z,4.50
2022-11-17T20:46:24.626Z,4.50
2022-11-17T20:48:55.861Z,4.50
2022-11-17T20:51:26.946Z,4.40
2022-11-17T20:53:54.117Z,4.40
2022-11-17T20:56:21.335Z,4.40
2022-11-17T20:58:48.427Z,4.40
2022-11-17T21:01:16.697Z,4.40
2022-11-17T21:03:45.185Z,4.40
2022-11-17T21:06:14.541Z,4.40
2022-11-17T21:08:44.605Z,4.40
2022-11-17T21:11:36.711Z,4.40
2022-11-17T21:14:05.444Z,4.30
2022-11-17T21:16:35.033Z,4.30
2022-11-17T21:19:04.937Z,4.30
2022-11-17T21:21:31.934Z,4.20
2022-11-17T21:23:59.241Z,4.20
2022-11-17T21:26:27.671Z,4.20
2022-11-17T21:28:54.547Z,4.10
2022-11-17T21:31:24.155Z,4.00
2022-11-17T21:33:55.861Z,4.00
2022-11-17T21:36:26.934Z,4.10
2022-11-17T21:38:54.781Z,4.10
2022-11-17T21:41:24.342Z,4.10
2022-11-17T21:43:53.687Z,4.00
2022-11-17T21:46:24.838Z,4.00
2022-11-17T21:48:52.932Z,4.00
2022-11-17T21:51:20.969Z,4.10
2022-11-17T21:53:57.430Z,4.10
2022-11-17T21:56:31.902Z,4.10
2022-11-17T21:59:09.632Z,4.10
2022-11-17T22:01:36.947Z,4.10
2022-11-17T22:04:04.842Z,4.10
2022-11-17T22:06:31.741Z,4.10
2022-11-17T22:08:59.703Z,4.20
2022-11-17T22:11:38.441Z,4.20
2022-11-17T22:14:19.091Z,4.20
2022-11-17T22:16:53.684Z,4.20
2022-11-17T22:19:22.398Z,4.30
2022-11-17T22:21:53.686Z,4.30
2022-11-17T22:24:21.199Z,4.30
2022-11-17T22:26:51.782Z,4.20
2022-11-17T22:29:24.022Z,4.20
2022-11-17T22:31:53.068Z,4.10
2022-11-17T22:34:20.007Z,4.10
2022-11-17T22:36:46.913Z,4.10
2022-11-17T22:39:16.113Z,4.10
2022-11-17T22:41:45.260Z,4.10
2022-11-17T22:44:16.410Z,4.10
2022-11-17T22:46:45.704Z,4.10
2022-11-17T22:49:15.953Z,4.00
2022-11-17T22:52:01.440Z,4.00
2022-11-17T22:54:30.683Z,4.00
2022-11-17T22:56:58.158Z,4.00
2022-11-17T22:59:26.254Z,4.10
2022-11-17T23:01:53.562Z,4.00
2022-11-17T23:04:20.686Z,4.00
2022-11-17T23:06:49.681Z,4.10
2022-11-17T23:09:17.137Z,4.00
2022-11-17T23:11:44.299Z,4.00
2022-11-17T23:14:13.264Z,4.00
2022-11-17T23:16:41.013Z,3.90
2022-11-17T23:19:11.120Z,4.00
2022-11-17T23:21:44.963Z,4.00
2022-11-17T23:24:14.287Z,3.90
2022-11-17T23:26:42.051Z,3.90
2022-11-17T23:29:09.406Z,4.00
2022-11-17T23:31:36.401Z,4.00
2022-11-17T23:34:07.725Z,4.00
2022-11-17T23:36:36.702Z,4.00
2022-11-17T23:39:05.958Z,4.10
2022-11-17T23:41:32.821Z,4.10
2022-11-17T23:43:59.633Z,4.10
2022-11-17T23:46:27.253Z,4.10
2022-11-17T23:48:57.130Z,4.10
2022-11-17T23:51:29.841Z,4.00
2022-11-17T23:54:01.544Z,3.90
2022-11-17T23:56:34.619Z,3.90
2022-11-17T23:59:01.602Z,3.90
